Time;durP1;ratioP1;P1;durP2;ratioP2;P2;SDS_P1;SDS_P2;PMS_P1;PMS_P2;Temp;Humidity;BMP_temperature;BMP_pressure;BME280_temperature;BME280_humidity;BME280_pressure;Samples;Min_cycle;Max_cycle;Signal;HPM_P1;HPM_P2
2021/06/30 00:02:00;;;;;;;10.70;6.40;;;;;;;23.08;70.74;100286.38;5070939;28;20020;-72
2021/06/30 00:04:26;;;;;;;8.82;6.57;;;;;;;23.20;71.02;100302.88;5053973;28;20127;-70
2021/06/30 00:06:52;;;;;;;10.10;7.38;;;;;;;23.05;71.94;100291.72;5070955;28;20040;-73
2021/06/30 00:09:18;;;;;;;10.32;7.25;;;;;;;23.02;72.36;100270.69;5071341;28;20024;-70
2021/06/30 00:11:44;;;;;;;10.88;7.60;;;;;;;23.13;72.21;100275.78;5070584;28;20100;-71
2021/06/30 00:14:10;;;;;;;10.05;7.00;;;;;;;23.01;72.97;100284.75;5071359;28;20482;-70
2021/06/30 00:16:36;;;;;;;9.77;7.78;;;;;;;22.87;74.49;100281.50;5070657;28;20505;-71
2021/06/30 00:19:05;;;;;;;12.20;8.68;;;;;;;22.81;75.25;100277.19;5071161;28;20051;-70
2021/06/30 00:21:30;;;;;;;10.85;8.85;;;;;;;22.86;75.59;100287.66;5070882;28;20028;-71
2021/06/30 00:23:56;;;;;;;15.75;9.40;;;;;;;22.85;76.23;100292.03;5070995;28;20028;-73
2021/06/30 00:26:21;;;;;;;11.85;9.27;;;;;;;22.96;75.95;100301.53;5070593;28;20029;-73
2021/06/30 00:28:47;;;;;;;12.43;9.70;;;;;;;23.09;75.70;100292.50;5048806;28;20097;-71
2021/06/30 00:31:12;;;;;;;12.95;10.05;;;;;;;23.18;75.49;100302.94;5070674;28;20060;-72
2021/06/30 00:33:38;;;;;;;10.77;9.13;;;;;;;23.04;75.90;100291.72;5070880;28;20020;-72
2021/06/30 00:36:04;;;;;;;11.90;8.70;;;;;;;22.58;76.95;100261.78;5071130;28;20042;-71
2021/06/30 00:38:30;;;;;;;11.27;9.35;;;;;;;23.02;75.93;100286.50;5070717;28;20766;-70
2021/06/30 00:40:55;;;;;;;10.63;9.52;;;;;;;23.13;75.11;100277.53;5070216;28;20052;-72
2021/06/30 00:43:21;;;;;;;9.73;7.95;;;;;;;23.03;75.45;100290.88;5070027;28;20445;-73
2021/06/30 00:45:48;;;;;;;10.75;8.88;;;;;;;23.04;76.21;100289.97;5070825;28;20071;-69
2021/06/30 00:48:14;;;;;;;10.52;8.68;;;;;;;22.96;76.56;100301.53;5070639;28;20017;-72
2021/06/30 00:50:40;;;;;;;10.27;9.05;;;;;;;23.13;75.91;100293.31;5070512;28;20028;-69
2021/06/30 00:53:06;;;;;;;14.00;8.68;;;;;;;22.86;76.75;100291.16;5067879;28;20035;-69
2021/06/30 00:55:32;;;;;;;10.63;9.50;;;;;;;22.86;76.70;100292.91;5052943;28;20020;-72
2021/06/30 00:57:58;;;;;;;13.80;9.27;;;;;;;22.95;75.49;100263.78;5070454;28;20501;-73
2021/06/30 01:00:24;;;;;;;12.93;9.48;;;;;;;22.94;76.10;100291.00;5070905;28;20121;-72
2021/06/30 01:02:49;;;;;;;12.35;9.45;;;;;;;22.91;76.02;100301.59;5070738;28;20036;-73
2021/06/30 01:05:16;;;;;;;11.30;8.93;;;;;;;23.02;75.84;100296.16;5071063;28;20025;-73
2021/06/30 01:07:44;;;;;;;11.85;9.18;;;;;;;22.61;76.05;100257.34;5071006;28;20047;-74
2021/06/30 01:10:10;;;;;;;10.52;9.43;;;;;;;22.70;75.40;100252.81;5071113;28;20024;-73
2021/06/30 01:12:36;;;;;;;10.30;9.10;;;;;;;22.90;75.17;100291.97;5071279;28;20038;-72
2021/06/30 01:15:07;;;;;;;12.55;8.95;;;;;;;22.82;76.20;100301.75;5070854;28;20050;-76
2021/06/30 01:17:33;;;;;;;10.57;8.75;;;;;;;22.78;75.97;100293.06;5069966;28;20055;-74
2021/06/30 01:19:59;;;;;;;18.23;8.88;;;;;;;23.05;75.15;100302.25;5068996;28;20068;-76
2021/06/30 01:22:25;;;;;;;9.85;8.40;;;;;;;22.83;75.69;100295.59;5037055;28;20469;-72
2021/06/30 01:24:52;;;;;;;12.25;8.77;;;;;;;22.79;75.96;100305.28;5070849;28;20430;-72
2021/06/30 01:27:21;;;;;;;13.93;8.93;;;;;;;22.58;76.82;100306.50;5070145;28;20032;-72
2021/06/30 01:29:47;;;;;;;10.15;8.98;;;;;;;22.39;77.35;100304.19;5071016;28;20112;-73
2021/06/30 01:32:13;;;;;;;10.95;9.02;;;;;;;22.45;77.02;100313.72;5070913;28;20048;-72
2021/06/30 01:34:39;;;;;;;11.80;9.20;;;;;;;22.55;76.56;100301.31;5071174;28;20028;-74
2021/06/30 01:37:05;;;;;;;11.57;9.43;;;;;;;22.72;75.87;100317.69;5071159;28;20388;-73
2021/06/30 01:39:31;;;;;;;10.60;8.95;;;;;;;22.35;77.07;100293.69;5069108;28;20044;-75
2021/06/30 01:41:57;;;;;;;12.27;9.18;;;;;;;22.62;76.49;100324.00;5070003;28;20115;-77
2021/06/30 01:44:22;;;;;;;10.43;8.43;;;;;;;22.27;76.90;100283.28;5070735;28;20410;-76
2021/06/30 01:46:48;;;;;;;9.73;8.73;;;;;;;22.46;76.77;100312.84;5068531;28;20049;-72
2021/06/30 01:49:14;;;;;;;10.15;8.55;;;;;;;22.63;76.09;100309.97;5070399;28;20482;-77
2021/06/30 01:51:40;;;;;;;10.32;8.35;;;;;;;22.13;76.69;100260.66;5070170;28;20082;-76
2021/06/30 01:54:11;;;;;;;10.98;9.00;;;;;;;22.34;76.93;100308.56;5070647;28;20458;-73
2021/06/30 01:56:37;;;;;;;13.88;9.82;;;;;;;22.13;77.63;100302.75;5070660;28;20098;-73
2021/06/30 01:59:13;;;;;;;12.63;8.52;;;;;;;21.99;78.43;100291.53;5071055;28;20071;-75
2021/06/30 02:01:40;;;;;;;13.30;9.30;;;;;;;21.94;78.83;100324.88;5070748;28;20024;-73
2021/06/30 02:04:06;;;;;;;12.70;9.50;;;;;;;21.82;79.38;100325.91;5070692;28;20025;-73
2021/06/30 02:06:41;;;;;;;11.25;8.85;;;;;;;21.92;78.99;100326.66;5070527;28;20089;-73
2021/06/30 02:09:11;;;;;;;10.57;8.95;;;;;;;22.12;78.10;100314.13;5052393;28;20485;-74
2021/06/30 02:11:37;;;;;;;11.05;9.10;;;;;;;22.04;78.86;100325.66;5070457;28;20021;-75
2021/06/30 02:14:05;;;;;;;9.88;8.85;;;;;;;22.04;78.42;100313.34;5070490;28;20436;-73
2021/06/30 02:16:30;;;;;;;11.75;9.02;;;;;;;22.01;78.58;100320.41;5070240;28;20028;-75
2021/06/30 02:18:59;;;;;;;11.48;9.07;;;;;;;22.25;77.53;100309.56;5070179;28;20024;-74
2021/06/30 02:21:24;;;;;;;11.82;8.68;;;;;;;22.17;77.50;100321.09;5052829;28;20028;-76
2021/06/30 02:23:50;;;;;;;13.05;8.93;;;;;;;21.54;78.32;100263.13;5074002;28;20028;-77
2021/06/30 02:26:15;;;;;;;14.52;9.63;;;;;;;21.87;78.98;100341.63;5073091;28;20021;-73
2021/06/30 02:28:41;;;;;;;12.88;9.20;;;;;;;21.97;78.58;100345.91;5074333;28;20025;-73
2021/06/30 02:31:06;;;;;;;12.57;9.40;;;;;;;22.14;78.01;100349.19;5074037;28;20111;-75
2021/06/30 02:33:32;;;;;;;15.95;9.45;;;;;;;21.49;79.74;100318.34;5074052;28;20024;-73
2021/06/30 02:35:57;;;;;;;9.68;8.68;;;;;;;21.81;79.40;100346.06;5073544;28;20032;-76
2021/06/30 02:38:23;;;;;;;12.38;9.68;;;;;;;21.77;79.05;100333.84;5073678;28;20107;-74
2021/06/30 02:40:49;;;;;;;13.25;9.80;;;;;;;21.81;79.41;100360.97;5073735;28;20028;-75
2021/06/30 02:43:15;;;;;;;14.40;9.73;;;;;;;21.71;78.80;100312.00;5073738;28;20458;-73
2021/06/30 02:45:40;;;;;;;12.40;9.13;;;;;;;21.38;79.63;100314.97;5073947;28;20047;-73
2021/06/30 02:48:06;;;;;;;14.73;9.75;;;;;;;21.73;80.02;100368.06;5068983;28;20013;-74
2021/06/30 02:50:32;;;;;;;13.48;9.55;;;;;;;21.63;79.70;100348.88;5061337;28;20123;-75
2021/06/30 02:52:57;;;;;;;15.30;10.05;;;;;;;21.78;79.45;100360.97;5072329;28;20043;-77
2021/06/30 02:55:23;;;;;;;11.88;9.77;;;;;;;21.98;78.35;100368.63;5073072;28;20462;-75
2021/06/30 02:57:49;;;;;;;13.82;9.05;;;;;;;22.16;77.56;100366.66;5072766;28;20036;-75
2021/06/30 03:00:21;;;;;;;12.48;9.68;;;;;;;22.33;76.42;100367.34;5072938;28;20028;-74
2021/06/30 03:02:47;;;;;;;19.10;9.75;;;;;;;22.38;76.08;100367.28;5066014;28;20056;-74
2021/06/30 03:05:13;;;;;;;14.43;9.05;;;;;;;22.31;75.95;100342.81;5072628;28;20559;-76
2021/06/30 03:07:38;;;;;;;12.05;9.00;;;;;;;22.57;75.47;100357.41;5073401;28;20103;-75
2021/06/30 03:10:07;;;;;;;12.93;8.68;;;;;;;22.63;74.14;100362.59;5073117;28;20031;-76
2021/06/30 03:12:33;;;;;;;9.27;8.13;;;;;;;22.78;73.96;100362.34;5073299;28;20031;-75
2021/06/30 03:14:59;;;;;;;13.30;8.35;;;;;;;22.50;75.53;100361.88;5072446;28;20060;-75
2021/06/30 03:17:24;;;;;;;10.80;8.45;;;;;;;22.07;77.10;100365.91;5073139;28;20071;-77
2021/06/30 03:19:50;;;;;;;12.27;9.05;;;;;;;21.53;79.53;100371.72;5072487;28;20025;-74
2021/06/30 03:22:15;;;;;;;13.63;9.13;;;;;;;21.58;79.26;100358.56;5072627;28;20036;-76
2021/06/30 03:24:41;;;;;;;12.60;9.65;;;;;;;21.83;78.36;100369.69;5072751;28;20054;-75
2021/06/30 03:27:07;;;;;;;13.60;9.15;;;;;;;21.72;78.26;100351.44;5072805;28;20490;-75
2021/06/30 03:29:32;;;;;;;12.20;8.95;;;;;;;21.41;79.22;100341.22;5072869;28;20123;-75
2021/06/30 03:31:57;;;;;;;15.90;9.38;;;;;;;21.44;80.49;100377.94;5073018;28;20025;-76
2021/06/30 03:34:23;;;;;;;13.48;9.63;;;;;;;21.52;80.10;100371.75;5053424;28;20028;-75
2021/06/30 03:36:48;;;;;;;15.07;9.63;;;;;;;21.19;81.80;100381.69;5072648;28;20500;-76
2021/06/30 03:39:14;;;;;;;14.05;9.65;;;;;;;21.42;81.08;100373.56;5072819;28;20031;-75
2021/06/30 03:41:39;;;;;;;11.77;9.65;;;;;;;21.19;81.98;100358.06;5072644;28;20054;-74
2021/06/30 03:44:05;;;;;;;16.52;10.00;;;;;;;20.91;83.13;100353.91;5072499;28;20028;-74
2021/06/30 03:46:31;;;;;;;11.65;10.13;;;;;;;21.11;82.55;100358.97;5072439;28;20395;-74
2021/06/30 03:48:57;;;;;;;17.00;10.70;;;;;;;21.22;82.55;100371.13;5072570;28;20039;-75
2021/06/30 03:51:22;;;;;;;11.23;9.73;;;;;;;21.46;81.37;100370.06;5071934;28;20099;-75
2021/06/30 03:53:47;;;;;;;11.00;9.52;;;;;;;21.36;81.77;100374.53;5072297;28;20409;-74
2021/06/30 03:56:13;;;;;;;11.43;9.27;;;;;;;21.55;81.05;100375.22;5072183;28;20028;-76
2021/06/30 03:58:38;;;;;;;16.70;9.85;;;;;;;21.42;81.91;100366.59;5072124;28;20536;-75
2021/06/30 04:01:04;;;;;;;18.10;9.73;;;;;;;21.50;81.70;100351.59;5054205;28;20127;-75
2021/06/30 04:03:29;;;;;;;13.18;10.32;;;;;;;21.78;81.76;100366.25;5071844;28;20012;-77
2021/06/30 04:05:55;;;;;;;16.17;10.10;;;;;;;21.48;81.28;100342.88;5050747;28;20111;-75
2021/06/30 04:08:20;;;;;;;14.73;9.80;;;;;;;21.90;80.23;100375.75;5069324;28;20095;-74
2021/06/30 04:10:46;;;;;;;12.45;9.93;;;;;;;21.74;81.21;100369.78;5071954;28;20020;-76
2021/06/30 04:13:15;;;;;;;13.65;10.45;;;;;;;21.79;81.24;100376.75;5071997;28;20025;-75
2021/06/30 04:15:42;;;;;;;12.63;10.75;;;;;;;21.90;80.88;100384.50;5071789;28;20024;-75
2021/06/30 04:18:08;;;;;;;12.93;10.65;;;;;;;22.01;80.51;100376.50;5072027;28;20107;-77
2021/06/30 04:20:33;;;;;;;13.27;11.13;;;;;;;21.91;80.36;100377.50;5053787;28;20107;-76
2021/06/30 04:22:59;;;;;;;13.45;11.57;;;;;;;21.40;81.79;100349.09;5064517;28;20029;-76
2021/06/30 04:25:25;;;;;;;13.38;11.32;;;;;;;21.73;82.09;100387.34;5065715;28;20060;-76
2021/06/30 04:27:50;;;;;;;13.38;11.55;;;;;;;21.89;81.10;100358.25;5072004;28;20389;-79
2021/06/30 04:30:16;;;;;;;18.17;11.60;;;;;;;22.20;80.54;100374.50;5071495;28;20104;-76
2021/06/30 04:32:42;;;;;;;17.52;12.13;;;;;;;22.27;79.03;100359.53;5071161;28;20526;-75
2021/06/30 04:35:08;;;;;;;17.02;11.20;;;;;;;22.29;79.23;100378.78;5071442;28;20461;-76
2021/06/30 04:37:33;;;;;;;16.05;11.20;;;;;;;22.04;78.54;100300.22;5071172;28;20024;-76
2021/06/30 04:40:04;;;;;;;14.00;11.68;;;;;;;22.69;77.44;100356.34;5070907;28;20036;-74
2021/06/30 04:42:30;;;;;;;13.38;11.48;;;;;;;22.77;77.96;100372.91;5050517;28;20040;-75
2021/06/30 04:44:55;;;;;;;17.80;11.30;;;;;;;22.89;76.92;100366.56;5070958;28;20472;-75
2021/06/30 04:47:21;;;;;;;13.30;11.60;;;;;;;23.19;76.84;100388.94;5070978;28;20025;-76
2021/06/30 04:49:46;;;;;;;14.45;11.23;;;;;;;23.32;77.55;100381.69;5071151;28;20024;-74
2021/06/30 04:52:12;;;;;;;12.77;10.60;;;;;;;23.24;76.29;100355.50;5035519;28;20395;-75
2021/06/30 04:54:38;;;;;;;13.18;10.70;;;;;;;23.57;75.72;100381.25;5071742;28;20052;-76
2021/06/30 04:57:03;;;;;;;13.18;11.18;;;;;;;23.43;76.20;100370.97;5070885;28;20024;-76
2021/06/30 04:59:29;;;;;;;12.65;11.35;;;;;;;23.60;75.94;100378.56;5071053;28;20032;-77
2021/06/30 05:01:54;;;;;;;13.02;11.02;;;;;;;23.65;74.19;100374.09;5070737;28;20086;-76
2021/06/30 05:04:21;;;;;;;15.30;11.50;;;;;;;23.68;74.47;100378.44;5053440;28;20021;-76
2021/06/30 05:06:46;;;;;;;15.85;10.88;;;;;;;23.60;73.56;100373.28;5070902;28;20028;-76
2021/06/30 05:09:13;;;;;;;16.05;11.60;;;;;;;23.88;72.89;100391.22;5071298;28;20497;-80
2021/06/30 05:11:38;;;;;;;13.77;11.82;;;;;;;23.89;72.92;100382.44;5070641;28;20487;-75
2021/06/30 05:14:04;;;;;;;12.23;10.60;;;;;;;23.97;73.10;100393.69;5070729;28;20028;-75
2021/06/30 05:16:29;;;;;;;15.52;10.50;;;;;;;24.06;72.35;100398.81;5070867;28;20471;-76
2021/06/30 05:18:55;;;;;;;16.50;12.73;;;;;;;24.17;71.79;100403.00;5070666;28;20031;-76
2021/06/30 05:21:21;;;;;;;18.70;12.05;;;;;;;24.17;71.53;100397.72;5070573;28;20051;-75
2021/06/30 05:23:47;;;;;;;25.15;12.13;;;;;;;24.15;71.39;100383.69;5070553;28;20059;-75
2021/06/30 05:26:13;;;;;;;18.42;12.10;;;;;;;24.16;70.59;100378.41;5070682;28;20514;-76
2021/06/30 05:28:39;;;;;;;18.33;10.90;;;;;;;24.07;70.99;100368.03;5069615;28;20028;-75
2021/06/30 05:31:04;;;;;;;17.75;10.75;;;;;;;24.43;70.78;100409.50;5065855;28;20035;-77
2021/06/30 05:33:30;;;;;;;18.55;10.75;;;;;;;24.54;70.13;100411.00;5068748;28;20075;-76
2021/06/30 05:35:55;;;;;;;17.85;11.07;;;;;;;24.51;70.29;100408.44;5069868;28;20027;-77
2021/06/30 05:38:22;;;;;;;18.15;12.10;;;;;;;24.50;71.70;100400.53;5070404;28;20024;-77
2021/06/30 05:40:48;;;;;;;19.20;12.23;;;;;;;24.40;72.07;100399.88;5070006;28;20028;-76
2021/06/30 05:43:14;;;;;;;22.52;12.00;;;;;;;24.51;70.04;100397.88;5070301;28;20406;-78
2021/06/30 05:45:40;;;;;;;17.73;10.52;;;;;;;24.42;69.90;100384.00;5059367;28;20052;-76
2021/06/30 05:48:06;;;;;;;17.75;10.80;;;;;;;24.55;68.94;100396.03;5053363;28;20145;-78
2021/06/30 05:50:32;;;;;;;13.55;10.25;;;;;;;24.55;68.94;100404.81;5051262;28;20060;-77
2021/06/30 05:52:58;;;;;;;17.55;11.52;;;;;;;24.37;70.83;100416.66;5051837;28;20021;-78
2021/06/30 05:55:24;;;;;;;15.20;10.77;;;;;;;24.22;72.11;100373.00;5050686;28;20021;-76
2021/06/30 05:57:50;;;;;;;14.35;10.13;;;;;;;24.48;69.50;100411.13;5034762;28;20068;-76
2021/06/30 06:00:19;;;;;;;12.88;8.88;;;;;;;24.64;66.29;100403.72;5057854;28;20024;-78
2021/06/30 06:02:45;;;;;;;13.35;9.55;;;;;;;24.79;68.74;100410.47;5056013;28;20028;-78
2021/06/30 06:05:11;;;;;;;14.05;9.10;;;;;;;24.90;67.25;100410.22;5057460;28;20044;-75
2021/06/30 06:07:37;;;;;;;9.80;8.48;;;;;;;24.86;63.17;100412.06;5054721;28;20104;-77
2021/06/30 06:10:04;;;;;;;10.18;8.57;;;;;;;24.89;64.85;100407.63;5056728;28;20042;-77
2021/06/30 06:12:29;;;;;;;11.77;8.63;;;;;;;24.84;63.19;100410.38;5055235;28;20044;-77
2021/06/30 06:14:55;;;;;;;10.77;8.25;;;;;;;24.77;63.11;100403.50;5020290;28;20475;-74
2021/06/30 06:17:20;;;;;;;13.35;8.55;;;;;;;24.93;65.24;100407.50;5057746;28;20021;-77
2021/06/30 06:19:46;;;;;;;9.38;8.13;;;;;;;25.05;64.95;100409.00;5055273;28;20430;-75
2021/06/30 06:22:15;;;;;;;11.20;7.70;;;;;;;25.31;62.41;100407.47;5055293;28;20048;-74
2021/06/30 06:24:40;;;;;;;14.13;7.65;;;;;;;25.45;61.89;100389.53;5041653;28;20437;-75
2021/06/30 06:27:07;;;;;;;9.52;7.28;;;;;;;25.63;61.06;100390.81;5048029;28;20029;-74
2021/06/30 06:29:34;;;;;;;12.18;8.25;;;;;;;25.79;63.45;100371.88;5053444;28;20575;-75
2021/06/30 06:32:00;;;;;;;10.50;7.13;;;;;;;25.91;60.96;100387.41;5054738;28;20017;-73
2021/06/30 06:34:26;;;;;;;8.98;8.07;;;;;;;25.98;60.23;100374.88;5020489;28;20044;-74
2021/06/30 06:36:52;;;;;;;10.15;8.57;;;;;;;25.73;60.43;100387.91;5054196;28;20517;-76
2021/06/30 06:39:19;;;;;;;10.65;8.02;;;;;;;25.55;60.58;100384.88;5056313;28;20074;-74
2021/06/30 06:41:46;;;;;;;12.93;8.60;;;;;;;25.66;62.91;100384.59;5049179;28;20104;-75
2021/06/30 06:44:11;;;;;;;15.40;8.50;;;;;;;25.60;62.63;100361.81;5051570;28;20033;-74
2021/06/30 06:46:39;;;;;;;11.88;8.30;;;;;;;25.58;63.76;100336.34;5058248;28;20063;-75
2021/06/30 06:49:05;;;;;;;10.00;8.18;;;;;;;25.66;63.14;100337.84;5053874;28;20021;-72
2021/06/30 06:51:31;;;;;;;10.23;8.52;;;;;;;25.97;64.47;100365.19;5052492;28;20495;-72
2021/06/30 06:53:57;;;;;;;12.02;9.18;;;;;;;26.10;64.35;100365.75;5044175;28;20036;-72
2021/06/30 06:56:26;;;;;;;13.35;8.75;;;;;;;26.24;62.72;100362.69;5037353;28;20060;-75
2021/06/30 06:58:52;;;;;;;;;;;;;;;26.36;62.31;100370.28;5056175;28;20036;-74
2021/06/30 07:01:18;;;;;;;11.98;8.65;;;;;;;26.47;63.07;100362.88;5056277;28;20153;-76
2021/06/30 07:03:43;;;;;;;12.20;8.30;;;;;;;26.58;61.50;100351.94;5055784;28;20021;-73
2021/06/30 07:06:09;;;;;;;10.25;7.82;;;;;;;26.91;59.33;100354.44;5054756;28;20467;-72
2021/06/30 07:08:35;;;;;;;11.77;7.90;;;;;;;27.03;61.03;100341.69;5055075;28;20029;-75
2021/06/30 07:11:00;;;;;;;9.40;7.47;;;;;;;27.02;59.99;100310.84;5054433;28;20047;-75
2021/06/30 07:13:26;;;;;;;10.55;8.25;;;;;;;27.24;58.93;100341.00;5057347;28;20024;-76
2021/06/30 07:15:52;;;;;;;14.05;7.85;;;;;;;27.35;58.08;100348.53;5044704;28;20021;-73
2021/06/30 07:18:17;;;;;;;9.93;7.78;;;;;;;27.48;61.14;100341.09;5051208;28;20399;-74
2021/06/30 07:20:44;;;;;;;9.35;6.68;;;;;;;27.37;57.82;100338.75;5053554;28;20032;-75
2021/06/30 07:23:12;;;;;;;10.13;7.05;;;;;;;27.35;58.57;100337.09;5049909;28;20075;-73
2021/06/30 07:25:39;;;;;;;7.75;6.20;;;;;;;27.49;57.35;100345.47;5055447;28;20525;-74
2021/06/30 07:28:05;;;;;;;9.13;6.57;;;;;;;27.48;56.56;100322.53;5051170;28;20021;-75
2021/06/30 07:30:32;;;;;;;8.23;6.05;;;;;;;27.40;57.10;100292.75;5053379;28;20021;-78
2021/06/30 07:32:58;;;;;;;6.95;5.53;;;;;;;27.75;56.18;100340.97;5034560;28;20025;-76
2021/06/30 07:35:24;;;;;;;8.50;5.47;;;;;;;27.68;57.89;100340.34;5049187;28;20021;-74
2021/06/30 07:37:50;;;;;;;8.52;6.18;;;;;;;27.65;57.39;100340.44;5045405;28;20479;-74
2021/06/30 07:40:15;;;;;;;7.55;5.50;;;;;;;27.66;57.64;100347.50;5027730;28;20063;-73
2021/06/30 07:42:41;;;;;;;8.65;5.97;;;;;;;27.74;57.92;100341.94;5054861;28;20037;-75
2021/06/30 07:45:08;;;;;;;8.25;5.57;;;;;;;27.87;57.59;100342.34;5058978;28;20049;-76
2021/06/30 07:47:34;;;;;;;8.25;5.22;;;;;;;28.07;56.99;100350.44;5071399;28;20039;-77
2021/06/30 07:50:01;;;;;;;10.82;6.22;;;;;;;28.00;56.83;100338.31;5068830;28;20071;-73
2021/06/30 07:52:27;;;;;;;9.15;6.60;;;;;;;27.80;58.36;100327.56;5068116;28;20501;-74
2021/06/30 07:54:52;;;;;;;8.00;6.18;;;;;;;28.02;57.90;100325.81;5070015;28;20082;-75
2021/06/30 07:57:18;;;;;;;6.63;5.85;;;;;;;28.34;56.20;100345.00;5070298;28;20486;-76
2021/06/30 07:59:43;;;;;;;11.95;5.82;;;;;;;28.38;58.19;100349.25;5065116;28;20051;-73
2021/06/30 08:02:09;;;;;;;22.42;6.65;;;;;;;28.48;55.69;100330.31;5070718;28;20116;-73
2021/06/30 08:04:34;;;;;;;8.63;5.88;;;;;;;28.66;56.38;100328.69;5072554;28;20032;-74
2021/06/30 08:07:00;;;;;;;8.48;5.95;;;;;;;28.86;55.81;100335.88;5072220;28;20020;-72
2021/06/30 08:09:27;;;;;;;9.88;6.28;;;;;;;28.68;55.63;100295.00;5072443;28;20036;-74
2021/06/30 08:11:52;;;;;;;8.68;5.63;;;;;;;29.11;55.21;100340.16;5072502;28;20055;-72
2021/06/30 08:14:18;;;;;;;8.82;6.05;;;;;;;29.16;54.73;100332.84;5072579;28;20100;-75
2021/06/30 08:16:44;;;;;;;10.52;6.90;;;;;;;29.21;55.97;100331.72;5072248;28;20082;-76
2021/06/30 08:19:09;;;;;;;8.38;6.72;;;;;;;29.12;55.50;100305.53;5071601;28;20441;-76
2021/06/30 08:21:35;;;;;;;94.20;11.43;;;;;;;29.24;55.11;100313.94;5071911;28;20020;-76
2021/06/30 08:24:01;;;;;;;11.98;7.53;;;;;;;29.46;54.75;100335.13;5063955;28;20033;-74
2021/06/30 08:26:26;;;;;;;10.70;8.10;;;;;;;29.37;55.00;100339.06;5066953;28;20040;-74
2021/06/30 08:28:52;;;;;;;10.50;8.00;;;;;;;29.41;55.17;100327.38;5070993;28;20029;-75
2021/06/30 08:31:18;;;;;;;15.18;8.75;;;;;;;29.47;53.98;100345.72;5069566;28;20017;-74
2021/06/30 08:33:43;;;;;;;11.65;8.57;;;;;;;29.54;54.68;100338.31;5052167;28;20020;-76
2021/06/30 08:36:09;;;;;;;11.45;8.68;;;;;;;29.66;54.63;100337.78;5070343;28;20033;-74
2021/06/30 08:38:35;;;;;;;8.48;7.57;;;;;;;29.68;53.30;100330.59;5069879;28;20032;-77
2021/06/30 08:41:01;;;;;;;15.05;9.25;;;;;;;29.73;54.82;100332.19;5070486;28;20044;-78
2021/06/30 08:43:26;;;;;;;11.98;8.85;;;;;;;29.71;53.39;100303.00;5069315;28;20067;-74
2021/06/30 08:45:53;;;;;;;11.50;8.48;;;;;;;29.77;53.89;100316.03;5056175;28;20052;-77
2021/06/30 08:48:19;;;;;;;12.27;9.25;;;;;;;29.84;53.39;100314.78;5053633;28;20033;-77
2021/06/30 08:50:46;;;;;;;10.73;8.70;;;;;;;29.86;54.76;100304.94;5048393;28;20479;-78
2021/06/30 08:53:13;;;;;;;10.38;9.05;;;;;;;30.12;52.52;100312.66;5051262;28;20025;-77
2021/06/30 08:55:43;;;;;;;9.93;8.93;;;;;;;30.17;52.02;100292.88;5049782;28;20442;-76
2021/06/30 08:58:10;;;;;;;11.30;8.82;;;;;;;30.22;52.01;100308.66;5050860;28;20066;-76
2021/06/30 09:00:36;;;;;;;15.65;9.60;;;;;;;30.30;51.64;100300.28;5050123;28;20025;-77
2021/06/30 09:03:02;;;;;;;10.13;8.77;;;;;;;30.22;51.94;100294.44;5050260;28;20021;-76
2021/06/30 09:07:53;;;;;;;12.05;9.35;;;;;;;30.40;51.34;100269.59;5051158;28;20055;-78
2021/06/30 09:10:34;;;;;;;14.45;9.20;;;;;;;30.48;52.48;100295.84;5051299;28;20440;-75
2021/06/30 09:13:01;;;;;;;9.57;8.15;;;;;;;30.50;50.97;100286.88;5030868;28;20045;-78
2021/06/30 09:15:32;;;;;;;9.98;8.38;;;;;;;30.71;51.35;100289.41;5049619;28;20494;-78
2021/06/30 09:18:18;;;;;;;12.30;9.27;;;;;;;30.81;50.25;100284.50;5051828;28;20434;-73
2021/06/30 09:20:46;;;;;;;10.75;8.52;;;;;;;30.82;50.83;100281.75;4988113;28;20038;-74
2021/06/30 09:23:11;;;;;;;11.15;8.27;;;;;;;30.98;50.60;100288.97;4991436;28;20124;-72
2021/06/30 09:25:42;;;;;;;9.55;8.52;;;;;;;31.01;50.52;100288.78;4992550;28;20505;-73
2021/06/30 09:28:18;;;;;;;13.02;9.23;;;;;;;31.15;50.80;100288.09;4990143;28;20116;-71
2021/06/30 09:31:02;;;;;;;11.00;8.00;;;;;;;31.24;49.45;100281.44;4994855;28;20441;-72
2021/06/30 09:33:52;;;;;;;9.15;7.70;;;;;;;31.41;48.71;100280.53;4988838;28;20545;-71
2021/06/30 09:36:19;;;;;;;10.55;8.60;;;;;;;31.26;50.67;100280.41;4969155;28;20509;-73
2021/06/30 09:38:46;;;;;;;11.57;7.78;;;;;;;31.45;49.70;100269.63;4964072;28;20074;-70
2021/06/30 09:41:25;;;;;;;7.43;6.72;;;;;;;31.54;48.71;100264.72;4967371;28;20524;-72
2021/06/30 09:44:00;;;;;;;8.25;6.57;;;;;;;31.57;47.33;100273.44;4968344;28;20148;-73
2021/06/30 09:46:25;;;;;;;8.00;6.25;;;;;;;31.42;48.41;100268.94;4983755;28;20061;-74
2021/06/30 09:48:56;;;;;;;10.57;6.40;;;;;;;31.59;48.48;100263.56;4986938;28;20026;-70
2021/06/30 09:51:22;;;;;;;9.95;6.25;;;;;;;31.77;47.28;100266.19;4970457;28;20059;-72
2021/06/30 09:53:48;;;;;;;7.97;6.50;;;;;;;31.79;47.33;100240.28;4986803;28;20540;-71
2021/06/30 09:56:33;;;;;;;9.05;6.32;;;;;;;32.16;45.80;100254.19;4977952;28;20057;-72
2021/06/30 09:59:13;;;;;;;9.15;6.50;;;;;;;31.99;45.39;100223.13;5003139;28;20085;-70
2021/06/30 10:01:40;;;;;;;8.55;6.13;;;;;;;32.03;46.60;100221.16;5011009;28;20054;-74
2021/06/30 10:04:05;;;;;;;6.95;5.78;;;;;;;32.40;46.27;100245.75;5006300;28;20030;-71
2021/06/30 10:06:36;;;;;;;62.55;9.35;;;;;;;32.65;44.60;100250.53;5008938;28;20435;-73
2021/06/30 10:09:04;;;;;;;15.02;6.03;;;;;;;32.56;44.33;100251.06;4989668;28;20077;-71
2021/06/30 10:11:31;;;;;;;8.00;5.22;;;;;;;32.59;44.01;100238.38;4985092;28;20125;-72
2021/06/30 10:13:58;;;;;;;12.73;6.25;;;;;;;32.68;43.97;100242.31;4985874;28;20038;-71
2021/06/30 10:16:25;;;;;;;7.10;5.45;;;;;;;32.54;43.12;100211.06;5007760;28;20460;-71
2021/06/30 10:18:55;;;;;;;7.85;5.60;;;;;;;32.68;43.24;100233.47;5007243;28;20081;-71
2021/06/30 10:21:24;;;;;;;6.15;5.13;;;;;;;32.70;43.65;100221.72;5008018;28;20400;-72
2021/06/30 10:23:51;;;;;;;8.82;6.13;;;;;;;32.59;44.31;100225.03;5005302;28;20065;-71
2021/06/30 10:26:19;;;;;;;7.22;5.20;;;;;;;32.50;43.28;100195.31;5009000;28;20503;-72
2021/06/30 10:28:52;;;;;;;8.70;5.90;;;;;;;32.85;43.70;100217.28;4991434;28;20500;-73
2021/06/30 10:31:18;;;;;;;6.68;5.57;;;;;;;33.10;42.57;100221.16;4989531;28;20053;-72
2021/06/30 10:33:57;;;;;;;6.57;5.28;;;;;;;33.27;42.49;100205.84;4983969;28;20051;-70
2021/06/30 10:36:44;;;;;;;6.28;5.10;;;;;;;33.53;41.90;100214.94;4961424;28;20068;-71
2021/06/30 10:39:10;;;;;;;7.45;5.07;;;;;;;33.57;40.32;100216.47;4979820;28;20046;-70
2021/06/30 10:41:42;;;;;;;5.85;4.78;;;;;;;33.66;40.65;100215.88;5068922;28;20035;-71
2021/06/30 10:44:16;;;;;;;10.80;5.53;;;;;;;33.63;39.78;100210.72;5073674;28;20041;-71
2021/06/30 10:46:43;;;;;;;8.32;5.00;;;;;;;33.68;39.56;100200.59;5072742;28;20083;-70
2021/06/30 10:49:24;;;;;;;7.03;4.68;;;;;;;33.66;41.13;100173.06;5073745;28;20490;-72
2021/06/30 10:51:53;;;;;;;11.10;4.80;;;;;;;33.72;40.93;100209.25;5070100;28;20016;-71
2021/06/30 10:54:46;;;;;;;6.53;4.68;;;;;;;33.69;39.21;100159.44;5073008;28;20111;-72
2021/06/30 10:57:31;;;;;;;5.97;5.00;;;;;;;34.02;40.00;100190.38;5072938;28;20448;-71
2021/06/30 11:00:05;;;;;;;13.43;5.18;;;;;;;34.23;39.71;100197.09;5073865;28;20054;-73
2021/06/30 11:02:34;;;;;;;6.47;4.82;;;;;;;34.06;39.95;100191.03;5076068;28;20036;-72
2021/06/30 11:05:15;;;;;;;10.23;5.55;;;;;;;34.10;39.58;100189.03;5024261;28;20410;-72
2021/06/30 11:07:41;;;;;;;6.88;4.55;;;;;;;34.28;39.26;100171.72;5081515;28;20023;-73
2021/06/30 11:10:20;;;;;;;6.93;5.28;;;;;;;34.12;38.67;100173.69;5072518;28;20058;-72
2021/06/30 11:12:54;;;;;;;7.90;5.47;;;;;;;34.20;37.79;100168.69;5068838;28;20036;-73
2021/06/30 11:15:38;;;;;;;9.40;5.28;;;;;;;34.38;39.01;100168.44;5075032;28;20039;-72
2021/06/30 11:18:29;;;;;;;5.78;4.88;;;;;;;34.59;37.20;100164.25;5074346;28;20032;-72
2021/06/30 11:21:01;;;;;;;8.57;5.00;;;;;;;34.10;37.70;100154.19;5071531;28;20025;-72